Time;durP1;ratioP1;P1;durP2;ratioP2;P2;SDS_P1;SDS_P2;PMS_P1;PMS_P2;Temp;Humidity;BMP_temperature;BMP_pressure;BME280_temperature;BME280_humidity;BME280_pressure;Samples;Min_cycle;Max_cycle;Signal;HPM_P1;HPM_P2
2022/07/31 00:00:42;;;;;;;1.60;1.23;;;;;;;19.39;53.92;98900.72;5011245;28;20233;-57
2022/07/31 00:03:10;;;;;;;1.83;1.20;;;;;;;19.32;53.46;98890.13;5009079;28;20258;-57
2022/07/31 00:05:38;;;;;;;2.27;1.30;;;;;;;19.27;53.48;98897.88;5011353;28;20199;-57
2022/07/31 00:08:05;;;;;;;1.80;1.27;;;;;;;19.15;53.95;98898.44;5011185;28;20220;-58
2022/07/31 00:10:32;;;;;;;2.30;1.27;;;;;;;19.09;54.43;98893.13;5013133;28;20249;-57
2022/07/31 00:12:59;;;;;;;1.10;1.00;;;;;;;18.95;54.19;98894.91;5013063;28;20194;-58
2022/07/31 00:15:26;;;;;;;1.87;1.20;;;;;;;18.84;54.76;98896.31;5012560;28;20201;-57
2022/07/31 00:17:53;;;;;;;1.47;1.23;;;;;;;18.83;54.67;98892.03;5012692;28;20210;-58
2022/07/31 00:20:20;;;;;;;1.97;1.20;;;;;;;18.72;55.06;98896.88;5013032;28;20186;-58
2022/07/31 00:22:49;;;;;;;1.57;1.27;;;;;;;18.59;54.95;98889.66;5012712;28;20282;-58
2022/07/31 00:25:19;;;;;;;2.27;1.47;;;;;;;18.55;55.10;98891.06;5012904;28;20210;-59
2022/07/31 00:27:46;;;;;;;1.07;0.90;;;;;;;18.52;55.01;98890.66;5011260;28;20233;-58
2022/07/31 00:30:15;;;;;;;2.40;1.40;;;;;;;18.40;54.66;98893.06;5011090;28;20719;-57
2022/07/31 00:32:42;;;;;;;2.63;1.27;;;;;;;18.29;55.01;98894.41;5003592;28;20195;-57
2022/07/31 00:35:12;;;;;;;2.57;1.23;;;;;;;18.19;55.94;98886.84;5012688;28;20194;-58
2022/07/31 00:37:40;;;;;;;2.30;1.43;;;;;;;18.17;56.16;98883.56;5012533;28;20235;-58
2022/07/31 00:40:11;;;;;;;3.50;1.40;;;;;;;18.17;56.10;98885.38;5012447;28;20186;-58
2022/07/31 00:42:39;;;;;;;3.30;1.40;;;;;;;18.12;55.36;98885.97;5010962;28;20230;-58
2022/07/31 00:45:07;;;;;;;2.90;1.33;;;;;;;18.07;56.14;98883.09;5012427;28;20193;-58
2022/07/31 00:47:34;;;;;;;3.03;1.60;;;;;;;18.01;56.11;98882.06;5012566;28;20472;-58
2022/07/31 00:50:02;;;;;;;2.13;1.63;;;;;;;17.94;56.85;98889.88;5012769;28;20214;-58
2022/07/31 00:52:29;;;;;;;1.60;1.50;;;;;;;17.91;56.75;98878.91;4994750;28;20268;-57
2022/07/31 00:54:56;;;;;;;1.53;1.30;;;;;;;17.89;56.91;98880.94;5012626;28;20193;-58
2022/07/31 00:57:24;;;;;;;2.97;1.23;;;;;;;17.82;56.81;98880.84;5012410;28;20209;-58
2022/07/31 00:59:53;;;;;;;4.00;1.50;;;;;;;17.80;56.86;98883.72;5002624;28;20213;-58
2022/07/31 01:02:20;;;;;;;2.20;1.40;;;;;;;17.80;56.74;98885.50;5011731;28;20588;-58
2022/07/31 01:04:47;;;;;;;3.17;1.20;;;;;;;17.76;56.83;98882.47;5011120;28;20682;-58
2022/07/31 01:07:13;;;;;;;3.33;1.47;;;;;;;17.68;57.17;98885.22;5012157;28;20253;-58
2022/07/31 01:09:41;;;;;;;1.77;1.40;;;;;;;17.62;57.26;98892.06;4989506;28;20221;-58
2022/07/31 01:12:14;;;;;;;2.53;1.53;;;;;;;17.69;58.07;98886.88;5003303;28;20213;-58
2022/07/31 01:14:47;;;;;;;2.10;1.50;;;;;;;17.62;57.73;98889.44;5012315;28;20256;-58
2022/07/31 01:17:15;;;;;;;3.97;1.60;;;;;;;17.54;57.91;98889.56;4994552;28;20371;-57
2022/07/31 01:19:45;;;;;;;2.13;1.30;;;;;;;17.53;58.10;98893.22;5002901;28;20275;-56
2022/07/31 01:22:29;;;;;;;3.10;1.50;;;;;;;17.53;57.87;98888.75;5007843;28;20201;-57
2022/07/31 01:25:07;;;;;;;2.03;1.20;;;;;;;17.43;58.32;98892.75;5007934;28;20194;-57
2022/07/31 01:28:06;;;;;;;3.00;1.30;;;;;;;17.36;57.94;98896.13;4987832;28;20197;-58
2022/07/31 01:30:59;;;;;;;3.23;1.53;;;;;;;17.26;58.69;98888.50;5011756;28;20844;-57
2022/07/31 01:33:33;;;;;;;1.60;1.40;;;;;;;17.29;58.12;98894.41;4994296;28;20294;-57
2022/07/31 01:36:08;;;;;;;1.57;1.27;;;;;;;17.30;57.91;98903.97;5010603;28;20245;-58
2022/07/31 01:38:40;;;;;;;1.77;1.40;;;;;;;17.22;58.51;98903.06;5011440;28;20220;-57
2022/07/31 01:41:11;;;;;;;1.80;1.50;;;;;;;17.24;58.68;98900.25;4989780;28;20193;-58
2022/07/31 01:43:40;;;;;;;3.80;1.40;;;;;;;17.19;58.88;98900.81;4993771;28;20204;-59
2022/07/31 01:46:12;;;;;;;3.37;1.50;;;;;;;17.18;59.33;98898.38;5010902;28;20680;-58
2022/07/31 01:48:40;;;;;;;1.63;1.37;;;;;;;17.07;59.55;98899.66;5003024;28;20620;-58
2022/07/31 01:51:13;;;;;;;1.90;1.70;;;;;;;17.04;59.87;98897.41;5010471;28;20202;-58
2022/07/31 01:53:43;;;;;;;1.40;1.30;;;;;;;17.05;59.59;98896.41;5005212;28;20657;-57
2022/07/31 01:56:11;;;;;;;3.03;1.63;;;;;;;17.02;59.48;98891.50;5011700;28;20202;-58
2022/07/31 01:58:41;;;;;;;3.03;1.50;;;;;;;17.09;59.52;98887.94;4991133;28;20225;-57
2022/07/31 02:01:20;;;;;;;3.07;1.30;;;;;;;17.03;60.16;98890.50;5010141;28;20207;-58
2022/07/31 02:03:49;;;;;;;1.93;1.30;;;;;;;16.93;59.77;98890.75;4993534;28;20266;-58
2022/07/31 02:06:18;;;;;;;3.90;1.40;;;;;;;16.94;60.13;98887.13;5011595;28;20195;-58
2022/07/31 02:08:47;;;;;;;3.90;1.67;;;;;;;16.96;60.48;98887.75;4998188;28;20217;-58
2022/07/31 02:11:17;;;;;;;3.23;1.63;;;;;;;16.96;60.27;98896.50;5007218;28;20218;-56
2022/07/31 02:13:46;;;;;;;1.87;1.30;;;;;;;16.92;60.63;98894.41;5010346;28;20613;-57
2022/07/31 02:16:14;;;;;;;1.90;1.67;;;;;;;16.98;59.67;98893.69;4994742;28;20192;-58
2022/07/31 02:18:43;;;;;;;2.87;1.50;;;;;;;16.95;59.82;98894.88;5005995;28;20692;-57
2022/07/31 02:21:15;;;;;;;4.30;2.07;;;;;;;16.86;60.46;98890.69;5014012;28;20203;-58
2022/07/31 02:23:44;;;;;;;1.87;1.27;;;;;;;16.82;60.99;98902.63;4996075;28;20204;-57
2022/07/31 02:26:15;;;;;;;1.67;1.20;;;;;;;16.78;61.26;98901.34;5013136;28;20196;-56
2022/07/31 02:28:43;;;;;;;2.03;1.40;;;;;;;16.85;61.27;98894.34;5013606;28;20212;-58
2022/07/31 02:31:12;;;;;;;2.00;1.70;;;;;;;16.78;61.70;98898.72;4997551;28;20258;-58
2022/07/31 02:33:46;;;;;;;3.13;2.00;;;;;;;16.76;61.91;98888.34;5006081;28;20200;-57
2022/07/31 02:36:17;;;;;;;2.23;1.43;;;;;;;16.75;61.72;98888.53;5013847;28;20655;-57
2022/07/31 02:38:44;;;;;;;3.87;1.47;;;;;;;16.78;62.49;98896.06;5013576;28;20301;-57
2022/07/31 02:41:14;;;;;;;2.37;1.50;;;;;;;16.73;62.03;98890.53;5014956;28;20279;-57
2022/07/31 02:43:42;;;;;;;1.93;1.40;;;;;;;16.71;61.78;98885.44;5013388;28;20231;-58
2022/07/31 02:46:16;;;;;;;2.90;1.40;;;;;;;16.68;61.86;98881.38;5013457;28;20218;-57
2022/07/31 02:48:45;;;;;;;1.97;1.20;;;;;;;16.68;62.21;98883.16;5013165;28;20204;-57
2022/07/31 02:51:14;;;;;;;1.77;1.57;;;;;;;16.64;62.40;98880.09;4997132;28;20192;-57
2022/07/31 02:53:41;;;;;;;3.93;1.50;;;;;;;16.62;62.67;98878.63;4995201;28;20207;-57
2022/07/31 02:56:10;;;;;;;2.20;1.50;;;;;;;16.57;62.54;98884.47;5014727;28;20204;-58
2022/07/31 02:58:40;;;;;;;4.33;1.70;;;;;;;16.58;62.53;98877.38;5005468;28;20224;-58
2022/07/31 03:01:08;;;;;;;1.77;1.63;;;;;;;16.53;62.79;98864.75;4996675;28;20552;-57
2022/07/31 03:03:37;;;;;;;3.70;1.30;;;;;;;16.57;62.95;98859.91;4996367;28;20287;-57
2022/07/31 03:06:05;;;;;;;2.50;1.43;;;;;;;16.52;62.77;98866.56;4992922;28;20560;-57
2022/07/31 03:08:32;;;;;;;2.93;1.73;;;;;;;16.55;63.11;98867.19;4993024;28;20222;-57
2022/07/31 03:11:04;;;;;;;3.27;1.47;;;;;;;16.49;62.43;98860.84;5012458;28;20193;-57
2022/07/31 03:13:33;;;;;;;1.97;1.30;;;;;;;16.42;62.75;98860.78;5012770;28;20291;-57
2022/07/31 03:16:02;;;;;;;1.87;1.60;;;;;;;16.46;62.57;98869.13;5009730;28;20198;-58
2022/07/31 03:18:31;;;;;;;2.50;1.87;;;;;;;16.42;63.04;98865.22;4996454;28;20600;-57
2022/07/31 03:20:58;;;;;;;2.23;1.80;;;;;;;16.45;62.80;98864.84;5014186;28;20281;-55
2022/07/31 03:23:34;;;;;;;2.00;1.80;;;;;;;16.37;63.46;98863.94;5012558;28;20201;-58
2022/07/31 03:26:06;;;;;;;3.70;1.73;;;;;;;16.38;63.38;98876.13;5008954;28;20201;-57
2022/07/31 03:28:33;;;;;;;6.60;1.90;;;;;;;16.32;63.37;98871.56;5013343;28;20217;-57
2022/07/31 03:31:00;;;;;;;3.27;1.77;;;;;;;16.28;63.32;98869.50;5012665;28;20201;-57
2022/07/31 03:33:29;;;;;;;4.53;1.97;;;;;;;16.23;63.49;98868.22;4993310;28;20629;-57
2022/07/31 03:35:57;;;;;;;2.20;2.00;;;;;;;16.30;64.33;98870.94;5010969;28;20250;-57
2022/07/31 03:38:26;;;;;;;3.10;1.77;;;;;;;16.20;64.06;98873.84;5012539;28;20230;-57
2022/07/31 03:40:53;;;;;;;2.97;1.73;;;;;;;16.22;63.88;98871.03;5004244;28;20729;-57
2022/07/31 03:43:21;;;;;;;6.67;1.80;;;;;;;16.16;63.90;98879.66;5004886;28;20199;-57
2022/07/31 03:45:51;;;;;;;7.10;2.03;;;;;;;16.08;64.17;98873.47;4996244;28;20207;-54
2022/07/31 03:48:18;;;;;;;3.10;2.07;;;;;;;16.08;64.53;98873.47;5012193;28;20211;-57
2022/07/31 03:50:45;;;;;;;3.33;1.40;;;;;;;16.16;64.95;98866.47;5005003;28;20221;-57
2022/07/31 03:53:13;;;;;;;6.50;2.00;;;;;;;16.21;64.13;98870.22;4996012;28;20249;-57
2022/07/31 03:55:46;;;;;;;5.13;1.80;;;;;;;16.15;64.11;98875.38;5012542;28;20225;-57
2022/07/31 03:58:13;;;;;;;4.63;1.70;;;;;;;16.14;64.48;98879.84;5004699;28;20223;-57
2022/07/31 04:00:40;;;;;;;2.93;1.83;;;;;;;16.19;64.54;98885.38;4992449;28;20206;-57
2022/07/31 04:03:09;;;;;;;3.77;1.40;;;;;;;16.19;64.37;98880.13;4988019;28;20204;-57
2022/07/31 04:05:52;;;;;;;6.63;1.63;;;;;;;16.23;63.83;98867.41;4995641;28;20349;-57
2022/07/31 04:08:19;;;;;;;3.03;1.80;;;;;;;16.25;64.34;98868.03;5010138;28;20214;-57
2022/07/31 04:10:49;;;;;;;2.83;1.80;;;;;;;16.25;63.40;98862.75;5011667;28;20763;-58
2022/07/31 04:13:19;;;;;;;2.27;1.80;;;;;;;16.29;64.04;98863.22;4992901;28;20262;-57
2022/07/31 04:15:45;;;;;;;1.90;1.60;;;;;;;16.36;64.20;98875.47;5004488;28;20210;-57
2022/07/31 04:18:12;;;;;;;4.03;1.83;;;;;;;16.46;63.82;98871.75;5011849;28;20277;-57
2022/07/31 04:20:42;;;;;;;4.60;1.53;;;;;;;16.57;63.11;98873.94;4995723;28;20290;-57
2022/07/31 04:23:09;;;;;;;2.30;1.60;;;;;;;16.67;62.82;98873.63;5011809;28;20199;-57
2022/07/31 04:25:55;;;;;;;1.67;1.50;;;;;;;16.79;63.72;98880.06;5010334;28;20331;-57
2022/07/31 04:28:27;;;;;;;2.80;1.97;;;;;;;16.91;63.19;98880.41;4992073;28;20287;-57
2022/07/31 04:31:13;;;;;;;3.37;1.57;;;;;;;17.12;62.60;98881.47;5011872;28;20278;-57
2022/07/31 04:33:40;;;;;;;3.93;1.90;;;;;;;17.24;62.89;98884.44;5011424;28;20204;-57
2022/07/31 04:36:07;;;;;;;2.53;1.70;;;;;;;17.32;62.25;98884.31;4995176;28;20205;-57
2022/07/31 04:38:34;;;;;;;1.77;1.60;;;;;;;17.40;62.33;98888.63;5012438;28;20220;-57
2022/07/31 04:41:02;;;;;;;1.87;1.60;;;;;;;17.52;61.86;98881.84;5010658;28;20690;-57
2022/07/31 04:43:29;;;;;;;2.53;1.70;;;;;;;17.67;61.50;98891.50;5011253;28;20203;-57
2022/07/31 04:45:57;;;;;;;3.03;1.90;;;;;;;17.78;60.84;98884.88;5009602;28;20216;-57
2022/07/31 04:48:24;;;;;;;3.57;1.40;;;;;;;17.90;60.96;98893.13;5011344;28;20589;-58
2022/07/31 04:50:51;;;;;;;4.90;1.60;;;;;;;17.97;60.91;98888.72;5011322;28;20200;-57
2022/07/31 04:53:18;;;;;;;3.10;1.80;;;;;;;18.02;60.94;98891.59;5003506;28;20687;-57
2022/07/31 04:56:32;;;;;;;1.87;1.70;;;;;;;18.11;60.42;98892.28;5011420;28;20542;-57
2022/07/31 04:58:36;;;;;;;2.43;1.70;;;;;;;18.22;61.85;98896.19;5010983;28;20568;-56
2022/07/31 05:01:03;;;;;;;3.27;1.70;;;;;;;18.32;61.70;98893.22;4994631;28;20195;-57
2022/07/31 05:03:30;;;;;;;4.10;2.00;;;;;;;18.39;60.13;98902.00;5010819;28;20284;-57
2022/07/31 05:05:57;;;;;;;2.43;1.67;;;;;;;18.43;61.43;98897.94;4994796;28;20256;-56
2022/07/31 05:08:24;;;;;;;3.63;1.77;;;;;;;18.46;61.73;98904.66;5004466;28;20629;-57
2022/07/31 05:14:00;;;;;;;2.07;1.57;;;;;;;18.53;60.78;98893.13;5008544;28;20700;-57
2022/07/31 05:16:28;;;;;;;2.63;1.57;;;;;;;18.61;61.27;98888.66;4993857;28;20208;-58
2022/07/31 05:18:56;;;;;;;2.43;1.70;;;;;;;18.67;60.19;98890.53;5010506;28;20276;-57
2022/07/31 05:21:49;;;;;;;4.47;1.83;;;;;;;18.72;60.12;98888.94;5008193;28;20689;-58
2022/07/31 05:24:34;;;;;;;3.07;1.73;;;;;;;18.80;59.50;98895.88;5012370;28;20217;-57
2022/07/31 05:27:05;;;;;;;1.87;1.63;;;;;;;18.94;59.74;98893.28;4999365;28;20223;-57
2022/07/31 05:29:34;;;;;;;2.73;1.60;;;;;;;19.02;60.13;98888.66;5011764;28;20725;-57
2022/07/31 05:32:01;;;;;;;1.93;1.57;;;;;;;19.15;59.64;98892.31;4994203;28;20261;-58
2022/07/31 05:34:29;;;;;;;3.47;1.60;;;;;;;19.23;58.04;98884.19;4994108;28;20217;-58
2022/07/31 05:36:57;;;;;;;3.10;1.43;;;;;;;19.35;57.60;98894.19;5010570;28;20715;-56
2022/07/31 05:39:25;;;;;;;3.13;1.57;;;;;;;19.51;56.59;98893.00;4993854;28;20298;-57
2022/07/31 05:42:18;;;;;;;2.97;1.60;;;;;;;19.78;57.30;98893.81;5008799;28;20214;-57
2022/07/31 05:45:10;;;;;;;2.03;1.60;;;;;;;20.12;56.19;98894.66;5008539;28;20664;-58
2022/07/31 05:47:37;;;;;;;3.10;1.60;;;;;;;20.33;55.67;98900.69;5010477;28;20212;-58
2022/07/31 05:50:06;;;;;;;2.67;1.53;;;;;;;20.53;55.58;98889.22;5011499;28;20666;-57
2022/07/31 05:52:32;;;;;;;1.97;1.60;;;;;;;20.74;55.03;98896.06;5002865;28;20543;-58
2022/07/31 05:55:14;;;;;;;2.63;1.77;;;;;;;20.81;52.80;98902.19;5007610;28;20671;-57
2022/07/31 05:57:55;;;;;;;2.90;1.60;;;;;;;20.94;53.04;98896.03;4998149;28;20253;-58
2022/07/31 06:00:23;;;;;;;3.00;1.63;;;;;;;21.06;52.71;98904.94;5011485;28;20199;-58
2022/07/31 06:02:50;;;;;;;1.40;1.30;;;;;;;21.15;53.42;98902.06;5010082;28;20671;-58
2022/07/31 06:05:38;;;;;;;1.53;1.33;;;;;;;21.20;53.27;98899.56;4996978;28;20241;-58
2022/07/31 06:08:05;;;;;;;2.60;1.47;;;;;;;21.18;53.14;98897.09;5007363;28;20633;-58
2022/07/31 06:10:37;;;;;;;3.00;1.40;;;;;;;21.24;53.85;98900.75;5011928;28;20293;-58
2022/07/31 06:13:05;;;;;;;1.90;1.30;;;;;;;21.31;53.92;98901.50;4990404;28;20203;-58
2022/07/31 06:15:34;;;;;;;1.77;1.40;;;;;;;21.33;53.72;98902.13;5009981;28;20304;-58
2022/07/31 06:18:01;;;;;;;2.77;1.70;;;;;;;21.41;53.83;98903.72;4993847;28;20621;-57
2022/07/31 06:20:29;;;;;;;2.67;1.60;;;;;;;21.54;54.08;98908.09;5001793;28;20262;-58
2022/07/31 06:22:56;;;;;;;2.30;1.50;;;;;;;21.72;53.42;98906.56;5011309;28;20271;-58
2022/07/31 06:25:27;;;;;;;2.40;1.40;;;;;;;21.92;53.25;98901.91;5002601;28;20198;-57
2022/07/31 06:27:54;;;;;;;2.97;1.70;;;;;;;22.03;51.38;98910.19;4990840;28;20295;-57
2022/07/31 06:30:23;;;;;;;2.03;1.40;;;;;;;22.13;51.37;98891.91;5011422;28;20266;-58
2022/07/31 06:32:51;;;;;;;1.83;1.27;;;;;;;22.25;51.31;98905.28;5009762;28;20197;-58
2022/07/31 06:35:18;;;;;;;2.17;1.37;;;;;;;22.34;50.83;98906.59;5009964;28;20681;-58
2022/07/31 06:38:05;;;;;;;2.17;1.40;;;;;;;22.40;51.04;98905.72;5011243;28;20649;-58
2022/07/31 06:40:45;;;;;;;3.80;1.50;;;;;;;22.36;50.48;98898.41;5010004;28;20807;-58
2022/07/31 06:43:38;;;;;;;1.67;1.57;;;;;;;22.34;51.15;98903.94;5008067;28;20878;-58
2022/07/31 06:46:40;;;;;;;2.90;1.50;;;;;;;22.24;50.31;98893.00;5008995;28;20208;-57
2022/07/31 06:49:27;;;;;;;2.57;1.57;;;;;;;22.32;50.21;98897.22;5008913;28;20228;-58
2022/07/31 06:51:54;;;;;;;1.60;1.30;;;;;;;22.51;49.56;98898.88;4993312;28;20672;-58
2022/07/31 06:54:21;;;;;;;2.10;1.73;;;;;;;22.64;48.71;98889.13;5002330;28;20291;-58
2022/07/31 06:56:48;;;;;;;3.07;1.50;;;;;;;22.69;49.31;98890.09;4993382;28;20228;-58
2022/07/31 06:59:15;;;;;;;2.73;1.50;;;;;;;22.82;47.57;98889.09;5009389;28;20214;-58
2022/07/31 07:01:42;;;;;;;4.20;1.50;;;;;;;22.92;46.41;98896.53;4990351;28;20235;-58
2022/07/31 07:04:09;;;;;;;2.13;1.60;;;;;;;23.02;47.84;98889.84;5005281;28;20658;-58
2022/07/31 07:06:37;;;;;;;3.57;1.70;;;;;;;23.17;47.48;98900.91;4997102;28;20216;-58
2022/07/31 07:09:05;;;;;;;2.40;1.57;;;;;;;23.28;47.64;98902.81;5002331;28;20220;-58
2022/07/31 07:11:32;;;;;;;3.30;1.33;;;;;;;23.43;46.87;98905.06;4996988;28;20209;-58
2022/07/31 07:13:59;;;;;;;2.20;1.30;;;;;;;23.49;46.68;98903.34;5005441;28;20761;-58
2022/07/31 07:16:27;;;;;;;2.47;1.53;;;;;;;23.59;46.22;98902.75;5013220;28;20630;-58
2022/07/31 07:18:54;;;;;;;2.07;1.40;;;;;;;23.68;46.28;98900.59;5014222;28;20641;-58
2022/07/31 07:21:21;;;;;;;4.93;1.50;;;;;;;23.71;44.58;98906.25;5013045;28;20204;-58
2022/07/31 07:23:49;;;;;;;4.10;1.93;;;;;;;23.76;43.72;98905.59;5012824;28;20213;-57
2022/07/31 07:26:20;;;;;;;5.73;1.87;;;;;;;23.72;44.00;98910.53;5012162;28;20197;-59
2022/07/31 07:28:48;;;;;;;4.33;1.60;;;;;;;23.73;43.89;98906.03;5012628;28;20218;-58
2022/07/31 07:31:18;;;;;;;2.67;1.70;;;;;;;23.71;44.02;98903.59;5012483;28;20663;-58
2022/07/31 07:33:46;;;;;;;2.87;1.70;;;;;;;23.79;43.56;98902.47;5004803;28;20284;-58
2022/07/31 07:36:21;;;;;;;2.23;1.67;;;;;;;23.95;42.98;98903.63;5012714;28;20219;-58
2022/07/31 07:38:50;;;;;;;3.50;1.77;;;;;;;24.11;42.86;98902.13;5012356;28;20212;-58
2022/07/31 07:41:18;;;;;;;2.67;1.60;;;;;;;24.01;42.93;98905.38;4996286;28;20735;-58
2022/07/31 07:43:45;;;;;;;2.90;1.50;;;;;;;24.18;42.81;98894.00;5012099;28;20291;-58
2022/07/31 07:46:11;;;;;;;2.10;1.40;;;;;;;24.16;42.84;98893.44;5012434;28;20259;-58
2022/07/31 07:48:42;;;;;;;5.00;1.87;;;;;;;24.16;43.47;98896.91;5012325;28;20220;-58
2022/07/31 07:51:15;;;;;;;3.30;1.90;;;;;;;24.16;42.98;98890.78;5008866;28;20573;-58
2022/07/31 07:54:03;;;;;;;4.23;1.80;;;;;;;24.38;43.30;98895.50;5008325;28;20197;-59
2022/07/31 07:56:51;;;;;;;4.87;1.97;;;;;;;24.31;43.87;98888.44;5012744;28;20205;-58
2022/07/31 07:59:47;;;;;;;3.17;2.10;;;;;;;24.48;43.75;98887.69;5011312;28;20238;-58
2022/07/31 08:02:37;;;;;;;3.93;2.20;;;;;;;24.66;43.37;98888.56;5011535;28;20282;-58
2022/07/31 08:05:06;;;;;;;3.30;1.95;;;;;;;24.86;43.07;98890.88;5011886;28;20192;-58
2022/07/31 08:07:36;;;;;;;3.13;1.80;;;;;;;25.10;42.06;98894.22;5001684;28;20205;-58
2022/07/31 08:10:08;;;;;;;4.13;2.37;;;;;;;25.21;41.75;98884.53;5011844;28;20254;-58
2022/07/31 08:12:49;;;;;;;4.17;2.23;;;;;;;25.48;41.85;98894.63;4994279;28;20707;-58
2022/07/31 08:15:15;;;;;;;4.00;1.90;;;;;;;25.59;41.15;98901.75;5013190;28;20218;-58
2022/07/31 08:18:01;;;;;;;5.20;2.15;;;;;;;25.47;41.58;98899.16;5013108;28;20230;-58
2022/07/31 08:20:28;;;;;;;2.50;2.20;;;;;;;25.34;41.67;98904.78;5004258;28;20222;-59
2022/07/31 08:22:55;;;;;;;3.10;1.70;;;;;;;25.22;41.91;98899.50;5011053;28;20192;-58
2022/07/31 08:25:23;;;;;;;4.07;2.38;;;;;;;25.14;42.23;98903.38;5009729;28;20278;-59
2022/07/31 08:27:50;;;;;;;4.90;2.00;;;;;;;25.08;42.89;98896.31;4990980;28;20234;-58
2022/07/31 08:30:18;;;;;;;3.75;2.00;;;;;;;25.34;42.76;98902.91;5011180;28;20660;-58
2022/07/31 08:32:45;;;;;;;5.28;2.35;;;;;;;25.56;42.23;98907.59;5009907;28;20325;-58
2022/07/31 08:35:31;;;;;;;4.18;1.90;;;;;;;25.95;40.24;98898.81;4999794;28;20694;-58
2022/07/31 08:37:58;;;;;;;2.65;1.70;;;;;;;26.13;39.46;98894.25;5009553;28;20194;-58
2022/07/31 08:40:29;;;;;;;2.65;1.60;;;;;;;26.48;38.36;98885.09;5012714;28;20288;-59
2022/07/31 08:42:56;;;;;;;3.43;1.57;;;;;;;26.68;38.73;98890.66;5007441;28;20190;-58
2022/07/31 08:45:23;;;;;;;4.25;1.35;;;;;;;26.89;37.50;98892.81;5009036;28;20661;-59
2022/07/31 08:48:03;;;;;;;2.08;1.20;;;;;;;26.84;36.66;98884.72;5000430;28;20208;-59
2022/07/31 08:50:39;;;;;;;2.08;1.63;;;;;;;26.95;36.65;98889.13;4992943;28;20206;-58
2022/07/31 08:53:15;;;;;;;3.47;1.25;;;;;;;27.30;35.71;98889.69;5011131;28;20198;-59
2022/07/31 08:55:58;;;;;;;3.55;1.33;;;;;;;27.45;34.78;98889.84;4994847;28;20695;-59
2022/07/31 08:58:29;;;;;;;3.35;1.50;;;;;;;27.59;35.67;98884.03;4994447;28;20209;-59
2022/07/31 09:00:57;;;;;;;2.55;1.42;;;;;;;27.52;34.94;98887.78;5009266;28;20218;-60
2022/07/31 09:03:24;;;;;;;4.15;1.52;;;;;;;27.54;35.68;98890.19;5010600;28;20213;-60
2022/07/31 09:05:55;;;;;;;1.58;1.33;;;;;;;27.66;34.96;98885.47;5007439;28;20195;-59
2022/07/31 09:08:22;;;;;;;3.10;1.40;;;;;;;27.29;35.75;98888.88;4996576;28;20281;-59
2022/07/31 09:11:03;;;;;;;4.22;1.30;;;;;;;27.26;36.17;98884.03;4991250;28;20194;-60
2022/07/31 09:13:33;;;;;;;5.53;1.63;;;;;;;27.38;33.79;98875.84;5007573;28;20823;-60
2022/07/31 09:16:02;;;;;;;5.20;1.63;;;;;;;27.46;33.10;98871.88;4994230;28;20198;-60
2022/07/31 09:18:30;;;;;;;2.30;1.40;;;;;;;27.52;33.88;98874.38;4991802;28;20254;-58
2022/07/31 09:21:07;;;;;;;6.70;1.58;;;;;;;27.36;34.58;98872.59;4992710;28;20576;-58
2022/07/31 09:23:44;;;;;;;4.82;1.45;;;;;;;27.62;34.02;98870.94;4991970;28;20202;-58
2022/07/31 09:26:12;;;;;;;2.92;1.35;;;;;;;27.83;34.60;98877.25;5006336;28;20560;-58
2022/07/31 09:28:41;;;;;;;2.42;1.30;;;;;;;28.06;33.46;98877.91;5010707;28;20305;-58
2022/07/31 09:31:10;;;;;;;3.63;1.55;;;;;;;28.12;33.75;98874.22;4991490;28;20203;-56
2022/07/31 09:34:13;;;;;;;2.88;1.40;;;;;;;28.09;33.46;98879.28;4993134;28;20691;-58
2022/07/31 09:36:40;;;;;;;2.97;1.40;;;;;;;28.03;32.77;98869.59;5012169;28;20203;-58
2022/07/31 09:39:28;;;;;;;3.15;1.50;;;;;;;28.04;33.93;98876.56;5004406;28;20616;-58
2022/07/31 09:42:36;;;;;;;2.25;1.33;;;;;;;27.98;34.03;98870.34;5008747;28;20670;-57
2022/07/31 09:45:22;;;;;;;2.42;1.63;;;;;;;27.96;33.06;98864.44;4989959;28;20212;-58
2022/07/31 09:48:03;;;;;;;2.35;1.52;;;;;;;27.91;34.14;98867.91;5010264;28;20623;-58
2022/07/31 09:50:30;;;;;;;1.90;1.30;;;;;;;27.80;33.59;98869.72;5010577;28;20247;-58
2022/07/31 09:52:59;;;;;;;4.13;1.20;;;;;;;27.80;33.33;98869.72;5004494;28;20211;-57
2022/07/31 09:55:28;;;;;;;1.80;1.25;;;;;;;27.65;33.15;98869.59;4994219;28;20675;-58
2022/07/31 09:57:59;;;;;;;3.58;1.40;;;;;;;27.52;32.43;98873.56;5010268;28;20206;-58
2022/07/31 10:00:32;;;;;;;2.70;1.35;;;;;;;27.71;33.25;98876.63;5010004;28;20236;-57
2022/07/31 10:03:00;;;;;;;1.75;1.55;;;;;;;27.83;32.86;98876.44;5002093;28;20346;-58
2022/07/31 10:05:30;;;;;;;2.85;1.60;;;;;;;27.84;32.11;98864.66;4993528;28;20222;-56
2022/07/31 10:08:00;;;;;;;2.53;1.60;;;;;;;28.05;31.83;98870.94;4992488;28;20553;-58
2022/07/31 10:10:43;;;;;;;2.63;1.40;;;;;;;28.38;31.96;98863.59;4990759;28;20203;-58
2022/07/31 10:13:36;;;;;;;4.95;1.70;;;;;;;28.42;31.20;98847.75;5008900;28;20226;-58
2022/07/31 10:16:04;;;;;;;2.50;1.60;;;;;;;28.48;31.20;98856.66;4991163;28;20225;-55
2022/07/31 10:18:59;;;;;;;1.67;1.40;;;;;;;28.80;30.66;98861.03;5002355;28;20224;-55
2022/07/31 10:21:40;;;;;;;3.15;1.67;;;;;;;28.78;31.18;98852.44;4991369;28;20210;-55
2022/07/31 10:24:19;;;;;;;4.30;1.50;;;;;;;28.86;31.35;98850.06;4990498;28;20669;-55
2022/07/31 10:26:46;;;;;;;3.67;1.45;;;;;;;29.26;30.69;98853.03;5006836;28;20575;-56
2022/07/31 10:29:16;;;;;;;2.25;1.55;;;;;;;29.20;30.74;98843.38;5010213;28;20652;-56
2022/07/31 10:31:45;;;;;;;1.80;1.40;;;;;;;29.29;29.88;98841.75;5009899;28;20200;-56
2022/07/31 10:34:13;;;;;;;2.28;1.33;;;;;;;29.31;30.62;98836.91;5009926;28;20250;-55
2022/07/31 10:37:06;;;;;;;4.65;1.83;;;;;;;29.27;31.38;98835.03;5008442;28;20239;-56
2022/07/31 10:40:07;;;;;;;5.18;1.70;;;;;;;29.36;30.69;98844.16;4997893;28;20712;-56
2022/07/31 10:42:46;;;;;;;2.35;1.60;;;;;;;29.40;31.11;98847.16;5011701;28;20685;-56
2022/07/31 10:45:16;;;;;;;2.67;1.77;;;;;;;29.10;31.25;98829.94;5009915;28;20214;-55
2022/07/31 10:48:11;;;;;;;6.90;1.60;;;;;;;29.19;31.06;98827.50;5011213;28;20235;-56
2022/07/31 10:51:10;;;;;;;2.30;1.70;;;;;;;29.42;30.68;98818.13;4976685;28;20206;-56
2022/07/31 10:54:05;;;;;;;5.55;1.63;;;;;;;29.53;31.04;98813.53;4995104;28;20208;-56
2022/07/31 10:56:51;;;;;;;3.85;1.85;;;;;;;30.01;30.56;98819.34;5011635;28;20207;-55
2022/07/31 10:59:37;;;;;;;3.08;1.83;;;;;;;30.15;29.39;98808.00;5000801;28;20216;-56
2022/07/31 11:02:33;;;;;;;4.78;1.77;;;;;;;29.96;30.15;98819.34;5001452;28;20204;-56
2022/07/31 11:05:21;;;;;;;2.72;1.90;;;;;;;29.74;30.50;98804.31;5012476;28;20207;-56
2022/07/31 11:08:10;;;;;;;3.20;1.92;;;;;;;29.39;31.34;98808.69;5011474;28;20713;-56
2022/07/31 11:10:59;;;;;;;3.60;1.80;;;;;;;29.46;31.27;98819.19;5014056;28;20313;-56
2022/07/31 11:13:47;;;;;;;3.55;2.03;;;;;;;29.51;31.09;98804.91;4995209;28;20201;-55
2022/07/31 11:16:32;;;;;;;2.60;1.73;;;;;;;29.62;30.80;98805.72;5013264;28;20197;-55
2022/07/31 11:19:38;;;;;;;3.65;1.70;;;;;;;30.04;30.28;98807.22;4996680;28;20239;-56
2022/07/31 11:22:11;;;;;;;5.28;1.90;;;;;;;29.91;30.66;98800.50;4996422;28;20303;-56
2022/07/31 11:24:38;;;;;;;2.42;1.90;;;;;;;30.11;30.27;98788.09;5011251;28;20602;-56
2022/07/31 11:27:05;;;;;;;3.20;1.45;;;;;;;30.13;29.88;98792.09;5014242;28;20203;-56
2022/07/31 11:29:34;;;;;;;5.25;1.95;;;;;;;30.10;30.52;98794.56;5013986;28;20220;-59
2022/07/31 11:32:13;;;;;;;1.85;1.60;;;;;;;29.40;30.71;98786.09;5013989;28;20203;-59
2022/07/31 11:34:47;;;;;;;4.50;1.75;;;;;;;29.36;31.64;98787.69;5014197;28;20259;-56
2022/07/31 11:37:17;;;;;;;2.33;1.70;;;;;;;29.54;31.81;98783.69;5013873;28;20196;-56
2022/07/31 11:39:44;;;;;;;6.75;2.10;;;;;;;29.25;31.51;98776.16;5013809;28;20216;-55
2022/07/31 11:42:11;;;;;;;1.95;1.70;;;;;;;29.43;31.39;98782.09;5013845;28;20616;-56
2022/07/31 11:44:38;;;;;;;3.38;1.80;;;;;;;29.07;31.46;98779.41;5014091;28;20243;-56
2022/07/31 11:47:05;;;;;;;4.78;1.70;;;;;;;28.79;32.04;98784.22;5013878;28;20213;-56
2022/07/31 11:49:34;;;;;;;4.88;1.90;;;;;;;28.70;32.07;98768.59;5007958;28;20665;-56
2022/07/31 11:52:03;;;;;;;4.55;1.70;;;;;;;29.16;32.06;98772.41;5010456;28;20199;-60
2022/07/31 11:54:48;;;;;;;3.10;1.70;;;;;;;29.60;31.62;98771.84;5012097;28;20781;-59
2022/07/31 11:57:15;;;;;;;3.42;1.60;;;;;;;29.63;30.58;98772.38;5013300;28;20631;-58
2022/07/31 11:59:42;;;;;;;2.22;1.60;;;;;;;29.82;31.02;98765.28;5009508;28;20212;-58
2022/07/31 12:02:11;;;;;;;2.28;1.88;;;;;;;30.40;30.17;98758.56;5008959;28;20216;-58